createdAt,value
2018-12-13T00:02:07.452Z,57.73
2018-12-13T00:04:35.848Z,56.40
2018-12-13T00:07:04.886Z,54.47
2018-12-13T00:09:33.314Z,50.67
2018-12-13T00:12:01.693Z,51.17
2018-12-13T00:14:30.622Z,56.67
2018-12-13T00:16:58.992Z,54.13
2018-12-13T00:19:29.598Z,51.90
2018-12-13T00:21:58.006Z,53.07
2018-12-13T00:24:26.598Z,52.30
2018-12-13T00:26:55.938Z,50.80
2018-12-13T00:29:24.312Z,49.83
2018-12-13T00:31:53.779Z,49.53
2018-12-13T00:34:22.739Z,58.33
2018-12-13T00:36:51.579Z,49.10
2018-12-13T00:39:19.931Z,50.10
2018-12-13T00:41:48.335Z,62.20
2018-12-13T00:44:16.695Z,63.50
2018-12-13T00:46:45.061Z,60.73
2018-12-13T00:49:13.471Z,57.60
2018-12-13T00:51:41.978Z,58.70
2018-12-13T00:54:10.335Z,59.60
2018-12-13T00:56:38.713Z,59.13
2018-12-13T00:59:07.074Z,58.73
2018-12-13T01:01:35.427Z,59.67
2018-12-13T01:04:05.126Z,68.53
2018-12-13T01:06:33.501Z,69.03
2018-12-13T01:09:02.259Z,58.77
2018-12-13T01:11:31.115Z,62.47
2018-12-13T01:13:59.797Z,57.30
2018-12-13T01:16:28.179Z,63.17
2018-12-13T01:18:57.333Z,63.73
2018-12-13T01:21:25.985Z,64.07
2018-12-13T01:23:56.041Z,62.87
2018-12-13T01:26:25.143Z,59.67
2018-12-13T01:28:53.532Z,60.83
2018-12-13T01:31:22.279Z,60.10
2018-12-13T01:33:50.700Z,60.07
2018-12-13T01:36:19.069Z,55.33
2018-12-13T01:38:47.447Z,57.43
2018-12-13T01:41:15.877Z,48.73
2018-12-13T01:43:44.248Z,142.13
2018-12-13T01:46:12.984Z,94.77
2018-12-13T01:48:41.632Z,84.17
2018-12-13T01:51:10.770Z,93.97
2018-12-13T01:53:39.537Z,81.03
2018-12-13T01:56:07.961Z,85.33
2018-12-13T01:58:36.350Z,93.97
2018-12-13T02:01:05.227Z,85.47
2018-12-13T02:03:33.907Z,85.27
2018-12-13T02:06:02.284Z,85.73
2018-12-13T02:08:30.664Z,81.47
2018-12-13T02:10:59.655Z,84.53
2018-12-13T02:13:28.039Z,78.33
2018-12-13T02:15:56.414Z,75.17
2018-12-13T02:18:24.790Z,77.40
2018-12-13T02:20:53.709Z,78.27
2018-12-13T02:23:22.467Z,71.97
2018-12-13T02:25:51.319Z,69.47
2018-12-13T02:28:20.409Z,79.17
2018-12-13T02:30:49.609Z,74.70
2018-12-13T02:33:17.960Z,73.67
2018-12-13T02:35:46.376Z,67.90
2018-12-13T02:38:15.112Z,67.97
2018-12-13T02:40:43.546Z,66.07
2018-12-13T02:43:12.235Z,59.30
2018-12-13T02:45:40.631Z,86.10
2018-12-13T02:48:10.049Z,96.33
2018-12-13T02:50:39.241Z,90.70
2018-12-13T02:53:07.982Z,88.23
2018-12-13T02:55:36.866Z,82.13
2018-12-13T02:58:05.232Z,80.03
2018-12-13T03:00:34.260Z,80.70
2018-12-13T03:03:02.610Z,74.33
2018-12-13T03:05:31.185Z,78.40
2018-12-13T03:07:59.543Z,78.67
2018-12-13T03:10:27.934Z,72.27
2018-12-13T03:12:56.482Z,74.43
2018-12-13T03:15:25.710Z,78.43
2018-12-13T03:17:54.090Z,75.67
2018-12-13T03:20:22.666Z,63.20
2018-12-13T03:22:51.016Z,74.33
2018-12-13T03:25:19.382Z,72.90
2018-12-13T03:27:47.745Z,72.73
2018-12-13T03:30:16.150Z,74.07
2018-12-13T03:32:44.867Z,65.40
2018-12-13T03:35:13.671Z,74.73
2018-12-13T03:37:42.035Z,63.70
2018-12-13T03:40:10.849Z,55.27
2018-12-13T03:42:39.204Z,58.50
2018-12-13T03:45:08.546Z,54.27
2018-12-13T03:47:38.235Z,196.53
2018-12-13T03:50:07.449Z,99.00
2018-12-13T03:52:35.807Z,90.83
2018-12-13T03:55:05.102Z,94.47
2018-12-13T03:57:33.447Z,85.33
2018-12-13T04:00:03.877Z,89.00
2018-12-13T04:02:32.274Z,88.37
2018-12-13T04:05:00.658Z,78.23
2018-12-13T04:07:29.035Z,88.70
2018-12-13T04:09:57.796Z,79.17
2018-12-13T04:12:26.648Z,78.87
2018-12-13T04:14:56.441Z,82.03
2018-12-13T04:17:25.519Z,77.17
2018-12-13T04:19:54.652Z,83.93
2018-12-13T04:22:23.804Z,77.53
2018-12-13T04:24:52.747Z,70.93
2018-12-13T04:27:21.722Z,69.73
2018-12-13T04:29:50.844Z,65.83
2018-12-13T04:32:19.255Z,75.87
2018-12-13T04:34:48.180Z,67.70
2018-12-13T04:37:17.364Z,66.90
2018-12-13T04:39:45.761Z,61.07
2018-12-13T04:42:14.389Z,67.23
2018-12-13T04:44:42.759Z,95.40
2018-12-13T04:47:11.730Z,84.67
2018-12-13T04:49:40.197Z,78.43
2018-12-13T04:52:10.249Z,76.53
2018-12-13T04:54:38.663Z,73.00
2018-12-13T04:57:07.047Z,66.57
2018-12-13T04:59:35.413Z,72.77
2018-12-13T05:02:05.661Z,71.63
2018-12-13T05:04:34.018Z,71.07
2018-12-13T05:07:02.971Z,66.70
2018-12-13T05:09:31.875Z,64.27
2018-12-13T05:12:00.834Z,68.07
2018-12-13T05:14:29.259Z,65.67
2018-12-13T05:16:58.280Z,64.40
2018-12-13T05:19:27.023Z,59.40
2018-12-13T05:21:55.410Z,61.77
2018-12-13T05:24:23.818Z,60.03
2018-12-13T05:26:52.232Z,59.63
2018-12-13T05:29:20.606Z,59.33
2018-12-13T05:31:49.040Z,57.63
2018-12-13T05:34:17.465Z,59.33
2018-12-13T05:36:46.731Z,51.87
2018-12-13T05:39:15.991Z,45.43
2018-12-13T05:41:44.354Z,46.63
2018-12-13T05:44:14.772Z,62.13
2018-12-13T05:46:43.164Z,61.23
2018-12-13T05:49:12.545Z,63.60
2018-12-13T05:51:41.545Z,56.43
2018-12-13T05:54:10.075Z,58.37
2018-12-13T05:56:38.758Z,57.63
2018-12-13T05:59:07.889Z,54.27
2018-12-13T06:01:36.298Z,61.60
2018-12-13T06:04:05.636Z,57.43
2018-12-13T06:06:34.745Z,55.27
2018-12-13T06:09:06.770Z,53.60
2018-12-13T06:11:35.752Z,67.30
2018-12-13T06:14:04.582Z,55.13
2018-12-13T06:16:32.949Z,60.23
2018-12-13T06:19:01.417Z,54.90
2018-12-13T06:21:29.819Z,59.37
2018-12-13T06:23:58.623Z,62.63
2018-12-13T06:26:27.951Z,63.87
2018-12-13T06:28:58.746Z,64.03
2018-12-13T06:31:29.219Z,62.20
2018-12-13T06:38:34.323Z,61.07
2018-12-13T06:41:02.736Z,61.03
2018-12-13T06:43:32.005Z,61.67
2018-12-13T06:46:00.416Z,55.23
2018-12-13T06:48:28.799Z,59.20
2018-12-13T06:50:57.831Z,49.57
2018-12-13T06:53:26.199Z,75.17
2018-12-13T06:55:55.438Z,89.40
2018-12-13T06:58:23.842Z,86.60
2018-12-13T07:00:52.215Z,83.10
2018-12-13T07:03:20.883Z,83.40
2018-12-13T07:05:49.282Z,69.07
2018-12-13T07:08:18.325Z,84.60
2018-12-13T07:10:46.717Z,76.57
2018-12-13T07:13:15.095Z,73.60
2018-12-13T07:15:43.484Z,83.47
2018-12-13T07:18:11.943Z,84.50
2018-12-13T07:20:40.414Z,84.43
2018-12-13T07:23:08.781Z,81.87
2018-12-13T07:25:37.238Z,89.33
2018-12-13T07:28:05.922Z,87.97
2018-12-13T07:30:34.291Z,98.13
2018-12-13T07:33:02.686Z,103.03
2018-12-13T07:35:31.038Z,95.10
2018-12-13T07:37:59.410Z,96.50
2018-12-13T07:40:27.823Z,93.73
2018-12-13T07:42:56.218Z,85.27
2018-12-13T07:45:24.585Z,75.23
2018-12-13T07:47:52.983Z,74.67
2018-12-13T07:50:22.125Z,84.13
2018-12-13T07:52:50.559Z,110.93
2018-12-13T07:55:19.661Z,128.50
2018-12-13T07:57:48.023Z,119.60
2018-12-13T08:00:17.276Z,115.63
2018-12-13T08:02:46.152Z,129.20
2018-12-13T08:05:15.587Z,116.90
2018-12-13T08:07:43.963Z,110.33
2018-12-13T08:10:13.267Z,122.43
2018-12-13T08:12:41.686Z,116.90
2018-12-13T08:15:11.288Z,109.87
2018-12-13T08:17:39.671Z,115.30
2018-12-13T08:20:08.917Z,106.40
2018-12-13T08:22:37.568Z,103.00
2018-12-13T08:25:06.811Z,115.67
2018-12-13T08:27:35.610Z,113.10
2018-12-13T08:30:05.142Z,103.47
2018-12-13T08:32:33.502Z,104.83
2018-12-13T08:35:02.107Z,95.77
2018-12-13T08:37:30.736Z,90.60
2018-12-13T08:39:59.562Z,83.87
2018-12-13T08:42:29.820Z,72.10
2018-12-13T08:44:58.176Z,104.47
2018-12-13T08:47:26.570Z,107.57
2018-12-13T08:49:54.970Z,101.03
2018-12-13T08:52:23.332Z,98.47
2018-12-13T08:54:51.690Z,89.57
2018-12-13T08:57:20.084Z,97.20
2018-12-13T08:59:48.442Z,92.47
2018-12-13T09:02:16.798Z,89.00
2018-12-13T09:04:45.192Z,87.53
2018-12-13T09:07:13.658Z,89.20
2018-12-13T09:09:42.045Z,83.27
2018-12-13T09:12:11.683Z,83.13
2018-12-13T09:14:40.283Z,71.07
2018-12-13T09:17:08.646Z,78.63
2018-12-13T09:19:37.054Z,75.67
2018-12-13T09:22:05.863Z,78.17
2018-12-13T09:24:34.946Z,72.87
2018-12-13T09:27:03.346Z,59.70
2018-12-13T09:29:31.728Z,85.70
2018-12-13T09:32:00.122Z,82.17
2018-12-13T09:34:29.486Z,64.43
2018-12-13T09:36:59.312Z,68.60
2018-12-13T09:39:27.726Z,61.83
2018-12-13T09:41:56.130Z,64.60
2018-12-13T09:44:24.565Z,62.70
2018-12-13T09:46:53.420Z,61.10
2018-12-13T09:49:22.353Z,61.03
2018-12-13T09:51:50.701Z,55.17
2018-12-13T09:54:19.086Z,55.90
2018-12-13T09:56:47.467Z,53.13
2018-12-13T09:59:16.093Z,55.77
2018-12-13T10:01:44.783Z,54.70
2018-12-13T10:04:13.156Z,50.10
2018-12-13T10:06:42.499Z,51.07
2018-12-13T10:09:10.913Z,45.13
2018-12-13T10:11:39.859Z,45.37
2018-12-13T10:14:08.806Z,46.33
2018-12-13T10:16:37.179Z,47.70
2018-12-13T10:19:05.978Z,44.53
2018-12-13T10:21:34.350Z,42.63
2018-12-13T10:24:02.733Z,44.30
2018-12-13T10:26:31.620Z,41.07
2018-12-13T10:29:00.053Z,49.43
2018-12-13T10:31:28.857Z,45.60
2018-12-13T10:33:57.219Z,48.73
2018-12-13T10:36:26.000Z,46.00
2018-12-13T10:38:54.392Z,36.10
2018-12-13T10:41:22.769Z,41.70
2018-12-13T10:43:51.143Z,40.00
2018-12-13T10:46:19.537Z,40.73
2018-12-13T10:48:47.945Z,38.13
2018-12-13T10:51:17.551Z,41.70
2018-12-13T10:53:45.943Z,35.53
2018-12-13T10:56:16.348Z,39.67
2018-12-13T10:58:44.729Z,42.07
2018-12-13T11:01:18.421Z,38.47
2018-12-13T11:03:46.830Z,37.70
2018-12-13T11:06:15.314Z,39.27
2018-12-13T11:08:43.682Z,44.83
2018-12-13T11:11:12.068Z,36.67
2018-12-13T11:13:41.801Z,35.70
2018-12-13T11:16:10.538Z,38.33
2018-12-13T11:18:38.943Z,38.37
2018-12-13T11:21:07.304Z,35.47
2018-12-13T11:23:36.140Z,34.80
2018-12-13T11:26:05.467Z,33.30
2018-12-13T11:28:45.249Z,34.47
2018-12-13T11:31:14.091Z,36.27
2018-12-13T11:33:42.787Z,31.03
2018-12-13T11:36:11.181Z,30.87
2018-12-13T11:38:40.144Z,28.50
2018-12-13T11:41:08.551Z,31.37
2018-12-13T11:43:37.206Z,30.87
2018-12-13T11:46:05.585Z,31.17
2018-12-13T11:48:34.227Z,34.07
2018-12-13T11:51:06.535Z,33.73
2018-12-13T11:53:36.420Z,29.57
2018-12-13T11:56:05.033Z,31.83
2018-12-13T11:58:35.368Z,30.27
2018-12-13T12:01:09.948Z,30.20
2018-12-13T12:03:38.976Z,34.50
2018-12-13T12:06:07.403Z,33.13
2018-12-13T12:08:36.269Z,29.17
2018-12-13T12:11:04.662Z,31.20
2018-12-13T12:13:34.624Z,28.73
2018-12-13T12:16:02.999Z,26.97
2018-12-13T12:18:31.668Z,29.33
2018-12-13T12:21:01.711Z,24.23
2018-12-13T12:23:30.760Z,31.83
2018-12-13T12:26:00.162Z,24.53
2018-12-13T12:28:29.096Z,27.97
2018-12-13T12:30:58.010Z,27.93
2018-12-13T12:33:27.850Z,29.13
2018-12-13T12:35:58.254Z,28.63
2018-12-13T12:38:26.873Z,29.60
2018-12-13T12:40:56.492Z,29.70
2018-12-13T12:43:25.474Z,30.70
2018-12-13T12:45:54.124Z,29.27
2018-12-13T12:48:24.235Z,31.83
2018-12-13T12:50:52.628Z,29.73
2018-12-13T12:53:22.141Z,30.83
2018-12-13T12:55:50.577Z,32.03
2018-12-13T12:58:19.910Z,27.40
2018-12-13T13:00:50.866Z,27.43
2018-12-13T13:03:20.449Z,25.07
2018-12-13T13:05:49.424Z,20.60
2018-12-13T13:08:18.817Z,27.40
2018-12-13T13:10:47.894Z,27.70
2018-12-13T13:13:16.437Z,29.07
2018-12-13T13:15:46.796Z,28.30
2018-12-13T13:18:15.204Z,29.33
2018-12-13T13:20:45.138Z,27.67
2018-12-13T13:23:14.595Z,28.80
2018-12-13T13:25:43.018Z,25.40
2018-12-13T13:28:11.825Z,26.47
2018-12-13T13:30:41.472Z,25.07
2018-12-13T13:33:10.007Z,27.67
2018-12-13T13:35:38.389Z,26.40
2018-12-13T13:38:07.196Z,28.97
2018-12-13T13:40:36.237Z,27.50
2018-12-13T13:43:04.603Z,26.80
2018-12-13T13:45:33.026Z,30.53
2018-12-13T13:48:01.918Z,26.97
2018-12-13T13:50:30.295Z,25.97
2018-12-13T13:52:59.716Z,22.63
2018-12-13T13:55:28.849Z,27.27
2018-12-13T13:57:57.881Z,27.17
2018-12-13T14:00:29.822Z,26.90
2018-12-13T14:02:58.765Z,26.97
2018-12-13T14:05:28.498Z,26.07
2018-12-13T14:07:57.135Z,27.93
2018-12-13T14:10:26.692Z,30.20
2018-12-13T14:12:56.008Z,28.90
2018-12-13T14:15:26.428Z,30.70
2018-12-13T14:18:00.158Z,28.90
2018-12-13T14:20:29.144Z,29.53
2018-12-13T14:22:59.534Z,29.60
2018-12-13T14:25:29.285Z,29.47
2018-12-13T14:27:58.633Z,31.40
2018-12-13T14:30:27.238Z,32.70
2018-12-13T14:32:55.645Z,31.90
2018-12-13T14:35:26.093Z,32.20
2018-12-13T14:37:55.638Z,32.10
2018-12-13T14:40:30.039Z,25.90
2018-12-13T14:42:58.922Z,30.93
2018-12-13T14:45:28.280Z,29.30
2018-12-13T14:47:58.969Z,35.80
2018-12-13T14:50:31.490Z,34.57
2018-12-13T14:53:02.178Z,34.10
2018-12-13T14:55:32.532Z,36.20
2018-12-13T14:58:02.931Z,36.17
2018-12-13T15:00:32.319Z,36.23
2018-12-13T15:03:00.836Z,36.07
2018-12-13T15:05:30.490Z,39.30
2018-12-13T15:07:59.301Z,35.93
2018-12-13T15:10:27.697Z,37.17
2018-12-13T15:12:56.579Z,40.43
2018-12-13T15:15:24.986Z,36.87
2018-12-13T15:17:53.368Z,42.57
2018-12-13T15:20:21.773Z,43.07
2018-12-13T15:22:50.638Z,46.90
2018-12-13T15:25:22.168Z,43.43
2018-12-13T15:27:56.494Z,46.97
2018-12-13T15:30:25.912Z,47.27
2018-12-13T15:32:54.931Z,43.33
2018-12-13T15:35:23.325Z,48.13
2018-12-13T15:37:51.778Z,51.87
2018-12-13T15:40:20.354Z,46.37
2018-12-13T15:42:48.880Z,49.93
2018-12-13T15:45:19.066Z,51.23
2018-12-13T15:47:48.850Z,52.53
2018-12-13T15:50:17.585Z,53.10
2018-12-13T15:52:47.515Z,51.70
2018-12-13T15:55:16.498Z,49.10
2018-12-13T15:57:44.923Z,50.43
2018-12-13T16:00:14.222Z,51.50
2018-12-13T16:02:43.394Z,49.20
2018-12-13T16:05:13.312Z,52.93
2018-12-13T16:07:41.698Z,53.80
2018-12-13T16:10:10.545Z,57.00
2018-12-13T16:12:38.928Z,53.60
2018-12-13T16:15:08.256Z,55.93
2018-12-13T16:17:37.429Z,53.80
2018-12-13T16:20:06.485Z,58.80
2018-12-13T16:22:37.896Z,54.83
2018-12-13T16:25:06.707Z,54.63
2018-12-13T16:27:35.503Z,55.97
2018-12-13T16:30:06.911Z,52.40
2018-12-13T16:32:35.279Z,56.97
2018-12-13T16:35:04.131Z,55.23
2018-12-13T16:37:32.525Z,54.67
2018-12-13T16:40:01.359Z,52.63
2018-12-13T16:42:29.742Z,51.67
2018-12-13T16:45:03.087Z,55.80
2018-12-13T16:47:34.151Z,54.97
2018-12-13T16:50:04.495Z,51.37
2018-12-13T16:52:33.919Z,53.23
2018-12-13T16:55:03.188Z,53.13
2018-12-13T16:57:31.562Z,51.47
2018-12-13T17:00:00.293Z,54.27
2018-12-13T17:02:29.295Z,51.13
2018-12-13T17:05:03.197Z,53.40
2018-12-13T17:07:28.128Z,48.07
2018-12-13T17:09:56.498Z,51.77
2018-12-13T17:12:25.490Z,54.53
2018-12-13T17:14:54.102Z,50.80
2018-12-13T17:17:22.504Z,54.40
2018-12-13T17:19:50.904Z,54.33
2018-12-13T17:22:19.540Z,52.23
2018-12-13T17:24:48.776Z,50.00
2018-12-13T17:27:17.132Z,51.17
2018-12-13T17:29:46.670Z,53.97
2018-12-13T17:32:15.811Z,47.87
2018-12-13T17:34:45.216Z,51.33
2018-12-13T17:37:14.464Z,56.03
2018-12-13T17:39:43.843Z,50.27
2018-12-13T17:42:12.439Z,50.27
2018-12-13T17:44:40.797Z,52.87
2018-12-13T17:47:09.150Z,49.47
2018-12-13T17:49:37.531Z,51.27
2018-12-13T17:52:08.266Z,48.00
2018-12-13T17:54:37.242Z,54.70
2018-12-13T17:57:05.687Z,47.70
2018-12-13T17:59:34.043Z,49.37
2018-12-13T18:02:03.506Z,47.07
2018-12-13T18:04:32.165Z,48.63
2018-12-13T18:07:00.503Z,46.57
2018-12-13T18:09:28.918Z,42.33
2018-12-13T18:11:57.327Z,41.10
2018-12-13T18:14:25.718Z,39.77
2018-12-13T18:16:54.102Z,66.27
2018-12-13T18:19:22.521Z,39.70
2018-12-13T18:21:51.425Z,43.73
2018-12-13T18:24:20.584Z,43.43
2018-12-13T18:26:48.978Z,39.40
2018-12-13T18:29:18.788Z,41.50
2018-12-13T18:31:47.201Z,40.63
2018-12-13T18:34:15.970Z,41.60
2018-12-13T18:36:45.201Z,40.60
2018-12-13T18:39:13.814Z,42.00
2018-12-13T18:41:43.608Z,43.70
2018-12-13T18:44:12.047Z,41.30
2018-12-13T18:46:40.438Z,42.23
2018-12-13T18:49:08.841Z,41.63
2018-12-13T18:51:37.255Z,39.27
2018-12-13T18:54:05.623Z,39.13
2018-12-13T18:56:33.985Z,40.00
2018-12-13T18:59:02.404Z,40.33
2018-12-13T19:01:30.782Z,43.63
2018-12-13T19:03:59.149Z,42.40
2018-12-13T19:06:27.527Z,38.57
2018-12-13T19:08:55.917Z,42.33
2018-12-13T19:11:25.091Z,39.13
2018-12-13T19:13:53.739Z,41.60
2018-12-13T19:16:22.607Z,38.50
2018-12-13T19:18:50.981Z,42.03
2018-12-13T19:21:19.396Z,40.77
2018-12-13T19:23:47.974Z,39.93
2018-12-13T19:26:16.359Z,41.10
2018-12-13T19:28:44.959Z,39.23
2018-12-13T19:31:13.378Z,38.67
2018-12-13T19:33:41.772Z,39.70
2018-12-13T19:36:10.178Z,37.37
2018-12-13T19:38:38.536Z,37.07
2018-12-13T19:41:06.914Z,37.83
2018-12-13T19:43:35.283Z,37.53
2018-12-13T19:46:03.752Z,38.27
2018-12-13T19:48:32.129Z,36.27
2018-12-13T19:51:00.766Z,34.33
2018-12-13T19:53:29.176Z,36.87
2018-12-13T19:55:58.875Z,34.93
2018-12-13T19:58:27.278Z,37.30
2018-12-13T20:00:56.441Z,44.20
2018-12-13T20:03:25.123Z,38.17
2018-12-13T20:05:53.501Z,36.63
2018-12-13T20:08:23.215Z,36.80
2018-12-13T20:10:54.694Z,40.10
2018-12-13T20:13:22.039Z,36.63
2018-12-13T20:15:50.407Z,36.77
2018-12-13T20:18:18.787Z,34.67
2018-12-13T20:20:47.128Z,38.97
2018-12-13T20:23:15.484Z,37.23
2018-12-13T20:25:43.838Z,36.33
2018-12-13T20:28:12.560Z,37.47
2018-12-13T20:30:40.903Z,35.20
2018-12-13T20:33:09.281Z,34.97
2018-12-13T20:35:37.699Z,37.73
2018-12-13T20:38:06.072Z,35.70
2018-12-13T20:40:34.728Z,34.23
2018-12-13T20:43:03.157Z,34.57
2018-12-13T20:45:31.550Z,34.90
2018-12-13T20:48:00.004Z,37.13
2018-12-13T20:50:28.406Z,38.33
2018-12-13T20:52:56.820Z,39.20
2018-12-13T20:55:25.980Z,35.80
2018-12-13T20:57:54.393Z,37.30
2018-12-13T21:00:22.773Z,31.97
2018-12-13T21:02:51.193Z,39.10
2018-12-13T21:05:19.601Z,38.10
2018-12-13T21:07:47.987Z,38.00
2018-12-13T21:10:16.373Z,40.13
2018-12-13T21:12:45.717Z,35.40
2018-12-13T21:15:14.549Z,34.67
2018-12-13T21:17:43.762Z,36.20
2018-12-13T21:20:12.594Z,36.90
2018-12-13T21:22:40.931Z,35.67
2018-12-13T21:25:09.541Z,32.77
2018-12-13T21:27:38.616Z,32.20
2018-12-13T21:30:08.112Z,32.97
2018-12-13T21:32:36.721Z,32.03
2018-12-13T21:35:05.811Z,35.40
2018-12-13T21:37:35.068Z,33.97
2018-12-13T21:40:05.756Z,31.90
2018-12-13T21:42:34.162Z,31.73
2018-12-13T21:45:02.538Z,31.43
2018-12-13T21:47:30.976Z,30.93
2018-12-13T21:49:59.392Z,30.40
2018-12-13T21:52:28.198Z,29.13
2018-12-13T21:54:57.163Z,31.80
2018-12-13T21:57:25.966Z,30.20
2018-12-13T21:59:54.694Z,31.60
2018-12-13T22:02:23.080Z,30.47
2018-12-13T22:04:51.487Z,29.97
2018-12-13T22:07:19.866Z,30.63
2018-12-13T22:09:48.282Z,31.57
2018-12-13T22:12:16.646Z,31.07
2018-12-13T22:14:45.018Z,32.63
2018-12-13T22:17:13.386Z,31.07
2018-12-13T22:19:41.765Z,32.00
2018-12-13T22:22:10.141Z,33.67
2018-12-13T22:24:38.537Z,32.20
2018-12-13T22:27:06.903Z,33.80
2018-12-13T22:29:35.615Z,28.47
2018-12-13T22:32:05.673Z,29.53
2018-12-13T22:34:34.430Z,30.33
2018-12-13T22:37:03.109Z,35.00
2018-12-13T22:39:31.505Z,29.20
2018-12-13T22:41:59.874Z,32.43
2018-12-13T22:44:28.319Z,33.53
2018-12-13T22:46:56.865Z,31.10
2018-12-13T22:49:25.214Z,32.93
2018-12-13T22:51:53.743Z,33.60
2018-12-13T22:54:23.023Z,33.00
2018-12-13T22:56:51.389Z,38.43
2018-12-13T22:59:19.749Z,33.43
2018-12-13T23:01:48.146Z,35.33
2018-12-13T23:04:16.485Z,32.87
2018-12-13T23:06:44.861Z,34.77
2018-12-13T23:09:13.260Z,34.93
2018-12-13T23:11:41.636Z,33.13
2018-12-13T23:14:10.021Z,31.03
2018-12-13T23:16:38.412Z,33.60
2018-12-13T23:19:07.302Z,35.07
2018-12-13T23:21:35.693Z,32.23
2018-12-13T23:24:04.276Z,36.07
2018-12-13T23:26:33.006Z,35.23
2018-12-13T23:29:01.378Z,36.20
2018-12-13T23:31:29.765Z,34.57
2018-12-13T23:33:58.162Z,35.90
2018-12-13T23:36:26.619Z,30.23
2018-12-13T23:38:55.013Z,27.83
2018-12-13T23:41:26.819Z,38.90
2018-12-13T23:43:55.751Z,34.90
2018-12-13T23:46:24.533Z,34.30
2018-12-13T23:48:52.935Z,35.10
2018-12-13T23:51:21.402Z,34.10
2018-12-13T23:53:49.928Z,34.67
2018-12-13T23:56:18.646Z,38.63
2018-12-13T23:58:47.487Z,38.43
